sensor_id;sensor_type;location;lat;lon;timestamp;P1;durP1;ratioP1;P2;durP2;ratioP2
37701;SDS011;23548;51.196;6.838;2023-09-12T00:02:04;16.80;;;9.85;;
37701;SDS011;23548;51.196;6.838;2023-09-12T00:04:30;17.15;;;11.05;;
37701;SDS011;23548;51.196;6.838;2023-09-12T00:06:56;20.13;;;11.65;;
37701;SDS011;23548;51.196;6.838;2023-09-12T00:09:22;17.25;;;11.95;;
37701;SDS011;23548;51.196;6.838;2023-09-12T00:11:47;16.42;;;12.75;;
37701;SDS011;23548;51.196;6.838;2023-09-12T00:14:16;17.38;;;12.68;;
37701;SDS011;23548;51.196;6.838;2023-09-12T00:16:43;19.80;;;13.13;;
37701;SDS011;23548;51.196;6.838;2023-09-12T00:19:10;19.10;;;12.02;;
37701;SDS011;23548;51.196;6.838;2023-09-12T00:21:36;20.10;;;13.45;;
37701;SDS011;23548;51.196;6.838;2023-09-12T00:24:02;18.20;;;13.23;;
37701;SDS011;23548;51.196;6.838;2023-09-12T00:26:28;26.00;;;14.60;;
37701;SDS011;23548;51.196;6.838;2023-09-12T00:28:55;20.23;;;14.02;;
37701;SDS011;23548;51.196;6.838;2023-09-12T00:31:21;25.08;;;14.50;;
37701;SDS011;23548;51.196;6.838;2023-09-12T00:33:47;22.75;;;13.55;;
37701;SDS011;23548;51.196;6.838;2023-09-12T00:36:13;19.15;;;13.30;;
37701;SDS011;23548;51.196;6.838;2023-09-12T00:38:38;16.67;;;11.85;;
37701;SDS011;23548;51.196;6.838;2023-09-12T00:41:04;17.90;;;12.18;;
37701;SDS011;23548;51.196;6.838;2023-09-12T00:43:30;19.05;;;11.43;;
37701;SDS011;23548;51.196;6.838;2023-09-12T00:45:55;16.23;;;11.15;;
37701;SDS011;23548;51.196;6.838;2023-09-12T00:48:21;12.30;;;9.57;;
37701;SDS011;23548;51.196;6.838;2023-09-12T00:50:48;11.90;;;8.85;;
37701;SDS011;23548;51.196;6.838;2023-09-12T00:53:14;13.25;;;9.07;;
37701;SDS011;23548;51.196;6.838;2023-09-12T00:55:42;9.90;;;7.78;;
37701;SDS011;23548;51.196;6.838;2023-09-12T00:58:14;10.80;;;8.98;;
37701;SDS011;23548;51.196;6.838;2023-09-12T01:00:41;10.77;;;8.10;;
37701;SDS011;23548;51.196;6.838;2023-09-12T01:03:07;12.10;;;8.80;;
37701;SDS011;23548;51.196;6.838;2023-09-12T01:05:32;12.18;;;8.88;;
37701;SDS011;23548;51.196;6.838;2023-09-12T01:07:59;11.57;;;8.95;;
37701;SDS011;23548;51.196;6.838;2023-09-12T01:10:25;15.50;;;8.80;;
37701;SDS011;23548;51.196;6.838;2023-09-12T01:12:52;12.20;;;9.32;;
37701;SDS011;23548;51.196;6.838;2023-09-12T01:15:18;14.80;;;10.40;;
37701;SDS011;23548;51.196;6.838;2023-09-12T01:17:44;16.70;;;10.43;;
37701;SDS011;23548;51.196;6.838;2023-09-12T01:20:14;12.55;;;10.45;;
37701;SDS011;23548;51.196;6.838;2023-09-12T01:31:49;15.23;;;12.00;;
37701;SDS011;23548;51.196;6.838;2023-09-12T01:34:16;17.85;;;12.45;;
37701;SDS011;23548;51.196;6.838;2023-09-12T01:36:41;14.38;;;12.13;;
37701;SDS011;23548;51.196;6.838;2023-09-12T01:39:07;25.98;;;17.17;;
37701;SDS011;23548;51.196;6.838;2023-09-12T01:41:34;26.25;;;19.38;;
37701;SDS011;23548;51.196;6.838;2023-09-12T01:44:04;26.15;;;18.85;;
37701;SDS011;23548;51.196;6.838;2023-09-12T01:46:32;31.15;;;20.20;;
37701;SDS011;23548;51.196;6.838;2023-09-12T01:49:00;30.17;;;19.88;;
37701;SDS011;23548;51.196;6.838;2023-09-12T01:51:29;30.48;;;20.42;;
37701;SDS011;23548;51.196;6.838;2023-09-12T01:53:55;26.48;;;19.88;;
37701;SDS011;23548;51.196;6.838;2023-09-12T01:56:23;29.42;;;19.52;;
37701;SDS011;23548;51.196;6.838;2023-09-12T01:58:49;28.77;;;19.55;;
37701;SDS011;23548;51.196;6.838;2023-09-12T02:01:14;28.13;;;20.13;;
37701;SDS011;23548;51.196;6.838;2023-09-12T02:03:40;29.10;;;19.70;;
37701;SDS011;23548;51.196;6.838;2023-09-12T02:06:06;27.95;;;20.00;;
37701;SDS011;23548;51.196;6.838;2023-09-12T02:08:32;26.58;;;19.05;;
37701;SDS011;23548;51.196;6.838;2023-09-12T02:10:58;27.83;;;19.83;;
37701;SDS011;23548;51.196;6.838;2023-09-12T02:13:23;28.10;;;19.92;;
37701;SDS011;23548;51.196;6.838;2023-09-12T02:15:49;29.77;;;19.50;;
37701;SDS011;23548;51.196;6.838;2023-09-12T02:18:15;30.92;;;20.60;;
37701;SDS011;23548;51.196;6.838;2023-09-12T02:20:41;26.85;;;20.75;;
37701;SDS011;23548;51.196;6.838;2023-09-12T02:23:10;29.85;;;21.65;;
37701;SDS011;23548;51.196;6.838;2023-09-12T02:25:36;28.98;;;20.58;;
37701;SDS011;23548;51.196;6.838;2023-09-12T02:28:02;33.15;;;22.90;;
37701;SDS011;23548;51.196;6.838;2023-09-12T02:30:28;29.92;;;20.95;;
37701;SDS011;23548;51.196;6.838;2023-09-12T02:32:54;30.38;;;21.83;;
37701;SDS011;23548;51.196;6.838;2023-09-12T02:35:20;30.60;;;21.77;;
37701;SDS011;23548;51.196;6.838;2023-09-12T02:37:46;29.70;;;22.77;;
37701;SDS011;23548;51.196;6.838;2023-09-12T02:40:11;34.35;;;24.77;;
37701;SDS011;23548;51.196;6.838;2023-09-12T02:42:39;30.77;;;23.92;;
37701;SDS011;23548;51.196;6.838;2023-09-12T02:45:05;32.80;;;23.40;;
37701;SDS011;23548;51.196;6.838;2023-09-12T02:47:31;32.30;;;24.33;;
37701;SDS011;23548;51.196;6.838;2023-09-12T02:49:56;33.25;;;24.45;;
37701;SDS011;23548;51.196;6.838;2023-09-12T02:52:22;38.88;;;25.73;;
37701;SDS011;23548;51.196;6.838;2023-09-12T02:54:48;33.25;;;24.50;;
37701;SDS011;23548;51.196;6.838;2023-09-12T02:57:13;37.42;;;25.10;;
37701;SDS011;23548;51.196;6.838;2023-09-12T02:59:39;33.65;;;25.00;;
37701;SDS011;23548;51.196;6.838;2023-09-12T03:02:05;34.92;;;24.85;;
37701;SDS011;23548;51.196;6.838;2023-09-12T03:04:31;34.97;;;26.95;;
37701;SDS011;23548;51.196;6.838;2023-09-12T03:06:58;35.35;;;25.02;;
37701;SDS011;23548;51.196;6.838;2023-09-12T03:09:24;35.28;;;26.48;;
37701;SDS011;23548;51.196;6.838;2023-09-12T03:11:49;37.10;;;25.33;;
37701;SDS011;23548;51.196;6.838;2023-09-12T03:14:15;33.83;;;24.35;;
37701;SDS011;23548;51.196;6.838;2023-09-12T03:16:41;33.03;;;24.40;;
37701;SDS011;23548;51.196;6.838;2023-09-12T03:19:06;36.42;;;24.05;;
37701;SDS011;23548;51.196;6.838;2023-09-12T03:21:32;27.83;;;22.65;;
37701;SDS011;23548;51.196;6.838;2023-09-12T03:23:58;33.63;;;23.05;;
37701;SDS011;23548;51.196;6.838;2023-09-12T03:26:23;29.65;;;22.02;;
37701;SDS011;23548;51.196;6.838;2023-09-12T03:31:24;28.05;;;21.67;;
37701;SDS011;23548;51.196;6.838;2023-09-12T03:33:50;27.25;;;21.63;;
37701;SDS011;23548;51.196;6.838;2023-09-12T03:36:16;32.38;;;23.30;;
37701;SDS011;23548;51.196;6.838;2023-09-12T03:38:45;32.80;;;24.17;;
37701;SDS011;23548;51.196;6.838;2023-09-12T03:41:11;33.60;;;22.63;;
37701;SDS011;23548;51.196;6.838;2023-09-12T03:43:36;29.23;;;21.42;;
37701;SDS011;23548;51.196;6.838;2023-09-12T03:46:02;26.17;;;21.00;;
37701;SDS011;23548;51.196;6.838;2023-09-12T03:48:29;26.35;;;19.90;;
37701;SDS011;23548;51.196;6.838;2023-09-12T03:50:58;26.73;;;19.63;;
37701;SDS011;23548;51.196;6.838;2023-09-12T03:53:24;24.65;;;19.05;;
37701;SDS011;23548;51.196;6.838;2023-09-12T03:55:51;23.02;;;17.50;;
37701;SDS011;23548;51.196;6.838;2023-09-12T03:58:17;23.55;;;17.88;;
37701;SDS011;23548;51.196;6.838;2023-09-12T04:00:43;25.58;;;17.38;;
37701;SDS011;23548;51.196;6.838;2023-09-12T04:03:09;25.42;;;17.13;;
37701;SDS011;23548;51.196;6.838;2023-09-12T04:05:34;23.27;;;17.25;;
37701;SDS011;23548;51.196;6.838;2023-09-12T04:08:00;21.73;;;17.35;;
37701;SDS011;23548;51.196;6.838;2023-09-12T04:10:26;23.27;;;17.05;;
37701;SDS011;23548;51.196;6.838;2023-09-12T04:12:51;24.35;;;17.48;;
37701;SDS011;23548;51.196;6.838;2023-09-12T04:15:17;23.15;;;16.60;;
37701;SDS011;23548;51.196;6.838;2023-09-12T04:17:43;22.63;;;15.55;;
37701;SDS011;23548;51.196;6.838;2023-09-12T04:20:08;21.98;;;15.63;;
37701;SDS011;23548;51.196;6.838;2023-09-12T04:22:38;18.55;;;15.02;;
37701;SDS011;23548;51.196;6.838;2023-09-12T04:25:05;22.02;;;13.77;;
37701;SDS011;23548;51.196;6.838;2023-09-12T04:27:31;20.65;;;14.70;;
37701;SDS011;23548;51.196;6.838;2023-09-12T04:29:57;18.52;;;13.07;;
37701;SDS011;23548;51.196;6.838;2023-09-12T04:32:22;18.73;;;13.38;;
37701;SDS011;23548;51.196;6.838;2023-09-12T04:34:48;17.77;;;13.63;;
37701;SDS011;23548;51.196;6.838;2023-09-12T04:37:15;19.08;;;14.93;;
37701;SDS011;23548;51.196;6.838;2023-09-12T04:39:40;19.77;;;15.02;;
37701;SDS011;23548;51.196;6.838;2023-09-12T04:42:06;25.63;;;16.90;;
37701;SDS011;23548;51.196;6.838;2023-09-12T04:44:35;20.55;;;15.57;;
37701;SDS011;23548;51.196;6.838;2023-09-12T04:47:02;21.63;;;14.90;;
37701;SDS011;23548;51.196;6.838;2023-09-12T04:49:28;20.52;;;14.45;;
37701;SDS011;23548;51.196;6.838;2023-09-12T04:51:54;16.98;;;14.18;;
37701;SDS011;23548;51.196;6.838;2023-09-12T04:54:20;19.50;;;13.90;;
37701;SDS011;23548;51.196;6.838;2023-09-12T04:56:45;18.00;;;14.52;;
37701;SDS011;23548;51.196;6.838;2023-09-12T04:59:12;19.05;;;12.48;;
37701;SDS011;23548;51.196;6.838;2023-09-12T05:01:37;20.52;;;13.48;;
37701;SDS011;23548;51.196;6.838;2023-09-12T05:04:03;17.45;;;13.95;;
37701;SDS011;23548;51.196;6.838;2023-09-12T05:06:29;19.33;;;14.02;;
37701;SDS011;23548;51.196;6.838;2023-09-12T05:08:54;19.13;;;14.38;;
37701;SDS011;23548;51.196;6.838;2023-09-12T05:11:22;18.25;;;14.80;;
37701;SDS011;23548;51.196;6.838;2023-09-12T05:13:49;22.45;;;15.30;;
37701;SDS011;23548;51.196;6.838;2023-09-12T05:16:14;22.00;;;14.32;;
37701;SDS011;23548;51.196;6.838;2023-09-12T05:18:40;23.15;;;15.27;;
37701;SDS011;23548;51.196;6.838;2023-09-12T05:21:06;17.50;;;13.45;;
37701;SDS011;23548;51.196;6.838;2023-09-12T05:23:32;19.63;;;14.75;;
37701;SDS011;23548;51.196;6.838;2023-09-12T05:25:58;20.15;;;13.98;;
37701;SDS011;23548;51.196;6.838;2023-09-12T05:28:23;20.17;;;14.68;;
37701;SDS011;23548;51.196;6.838;2023-09-12T05:30:49;25.45;;;16.35;;
37701;SDS011;23548;51.196;6.838;2023-09-12T05:33:15;24.67;;;16.40;;
37701;SDS011;23548;51.196;6.838;2023-09-12T05:35:41;20.15;;;15.05;;
37701;SDS011;23548;51.196;6.838;2023-09-12T05:38:07;19.48;;;15.27;;
37701;SDS011;23548;51.196;6.838;2023-09-12T05:40:32;20.58;;;15.27;;
37701;SDS011;23548;51.196;6.838;2023-09-12T05:42:58;23.67;;;15.43;;
37701;SDS011;23548;51.196;6.838;2023-09-12T05:45:24;20.67;;;15.10;;
37701;SDS011;23548;51.196;6.838;2023-09-12T05:47:50;20.30;;;15.18;;
37701;SDS011;23548;51.196;6.838;2023-09-12T05:50:16;20.38;;;14.57;;
37701;SDS011;23548;51.196;6.838;2023-09-12T05:52:41;21.63;;;15.30;;
37701;SDS011;23548;51.196;6.838;2023-09-12T05:55:08;36.03;;;21.85;;
37701;SDS011;23548;51.196;6.838;2023-09-12T05:57:36;38.72;;;27.65;;
37701;SDS011;23548;51.196;6.838;2023-09-12T06:00:02;39.60;;;30.35;;
37701;SDS011;23548;51.196;6.838;2023-09-12T06:02:35;37.22;;;27.48;;
37701;SDS011;23548;51.196;6.838;2023-09-12T06:05:01;31.30;;;23.75;;
37701;SDS011;23548;51.196;6.838;2023-09-12T06:07:26;20.60;;;16.58;;
37701;SDS011;23548;51.196;6.838;2023-09-12T06:09:52;30.45;;;22.70;;
37701;SDS011;23548;51.196;6.838;2023-09-12T06:12:18;31.10;;;23.10;;
37701;SDS011;23548;51.196;6.838;2023-09-12T06:14:43;30.33;;;23.15;;
37701;SDS011;23548;51.196;6.838;2023-09-12T06:17:10;33.95;;;23.30;;
37701;SDS011;23548;51.196;6.838;2023-09-12T06:19:35;68.93;;;25.70;;
37701;SDS011;23548;51.196;6.838;2023-09-12T06:22:01;26.40;;;19.88;;
37701;SDS011;23548;51.196;6.838;2023-09-12T06:24:27;27.73;;;21.15;;
37701;SDS011;23548;51.196;6.838;2023-09-12T06:26:53;39.08;;;25.88;;
37701;SDS011;23548;51.196;6.838;2023-09-12T06:29:18;37.40;;;23.90;;
37701;SDS011;23548;51.196;6.838;2023-09-12T06:31:44;36.30;;;25.20;;
37701;SDS011;23548;51.196;6.838;2023-09-12T06:34:10;35.72;;;26.45;;
37701;SDS011;23548;51.196;6.838;2023-09-12T06:36:35;33.03;;;23.02;;
37701;SDS011;23548;51.196;6.838;2023-09-12T06:39:03;28.08;;;21.73;;
37701;SDS011;23548;51.196;6.838;2023-09-12T06:41:30;29.88;;;21.80;;
37701;SDS011;23548;51.196;6.838;2023-09-12T06:43:56;32.38;;;21.77;;
37701;SDS011;23548;51.196;6.838;2023-09-12T06:46:23;29.80;;;21.95;;
37701;SDS011;23548;51.196;6.838;2023-09-12T06:48:49;28.42;;;21.60;;
37701;SDS011;23548;51.196;6.838;2023-09-12T06:51:15;26.67;;;20.80;;
37701;SDS011;23548;51.196;6.838;2023-09-12T06:53:41;27.55;;;20.33;;
37701;SDS011;23548;51.196;6.838;2023-09-12T06:56:07;24.35;;;18.98;;
37701;SDS011;23548;51.196;6.838;2023-09-12T06:58:33;23.48;;;18.55;;
37701;SDS011;23548;51.196;6.838;2023-09-12T07:01:02;17.58;;;14.35;;
37701;SDS011;23548;51.196;6.838;2023-09-12T07:03:32;19.13;;;14.10;;
37701;SDS011;23548;51.196;6.838;2023-09-12T07:05:58;16.52;;;12.90;;
37701;SDS011;23548;51.196;6.838;2023-09-12T07:08:24;14.60;;;12.45;;
37701;SDS011;23548;51.196;6.838;2023-09-12T07:10:50;13.70;;;11.38;;
37701;SDS011;23548;51.196;6.838;2023-09-12T07:13:19;13.48;;;10.32;;
37701;SDS011;23548;51.196;6.838;2023-09-12T07:15:46;13.45;;;9.10;;
37701;SDS011;23548;51.196;6.838;2023-09-12T07:18:11;10.57;;;7.85;;
37701;SDS011;23548;51.196;6.838;2023-09-12T07:20:37;8.77;;;6.95;;
37701;SDS011;23548;51.196;6.838;2023-09-12T07:23:03;9.40;;;7.05;;
37701;SDS011;23548;51.196;6.838;2023-09-12T07:25:28;9.75;;;7.40;;
37701;SDS011;23548;51.196;6.838;2023-09-12T07:27:54;12.57;;;7.95;;
37701;SDS011;23548;51.196;6.838;2023-09-12T07:30:20;9.23;;;8.20;;
37701;SDS011;23548;51.196;6.838;2023-09-12T07:32:45;9.65;;;8.57;;
37701;SDS011;23548;51.196;6.838;2023-09-12T07:35:11;10.30;;;7.63;;
37701;SDS011;23548;51.196;6.838;2023-09-12T07:37:37;9.48;;;6.68;;
37701;SDS011;23548;51.196;6.838;2023-09-12T07:40:02;12.55;;;6.35;;
37701;SDS011;23548;51.196;6.838;2023-09-12T07:42:34;7.43;;;6.32;;
37701;SDS011;23548;51.196;6.838;2023-09-12T07:45:04;8.38;;;6.20;;
37701;SDS011;23548;51.196;6.838;2023-09-12T07:47:30;9.23;;;6.30;;
37701;SDS011;23548;51.196;6.838;2023-09-12T07:49:57;6.63;;;5.30;;
37701;SDS011;23548;51.196;6.838;2023-09-12T07:52:24;6.60;;;5.70;;
37701;SDS011;23548;51.196;6.838;2023-09-12T07:54:49;8.25;;;5.32;;
37701;SDS011;23548;51.196;6.838;2023-09-12T07:57:18;8.00;;;5.15;;
37701;SDS011;23548;51.196;6.838;2023-09-12T07:59:44;6.80;;;5.40;;
37701;SDS011;23548;51.196;6.838;2023-09-12T08:02:09;7.38;;;5.00;;
37701;SDS011;23548;51.196;6.838;2023-09-12T08:04:37;7.55;;;5.50;;
37701;SDS011;23548;51.196;6.838;2023-09-12T08:07:03;7.25;;;4.97;;
37701;SDS011;23548;51.196;6.838;2023-09-12T08:09:48;6.05;;;4.32;;
37701;SDS011;23548;51.196;6.838;2023-09-12T08:12:18;5.28;;;4.70;;
37701;SDS011;23548;51.196;6.838;2023-09-12T08:14:45;8.65;;;4.90;;
37701;SDS011;23548;51.196;6.838;2023-09-12T08:17:11;9.02;;;4.40;;
37701;SDS011;23548;51.196;6.838;2023-09-12T08:19:37;9.60;;;5.57;;
37701;SDS011;23548;51.196;6.838;2023-09-12T08:22:03;8.27;;;4.70;;
37701;SDS011;23548;51.196;6.838;2023-09-12T08:24:28;7.93;;;5.10;;
37701;SDS011;23548;51.196;6.838;2023-09-12T08:26:54;5.25;;;4.40;;
37701;SDS011;23548;51.196;6.838;2023-09-12T08:29:20;6.95;;;4.78;;
37701;SDS011;23548;51.196;6.838;2023-09-12T08:31:46;5.75;;;5.15;;
37701;SDS011;23548;51.196;6.838;2023-09-12T08:34:12;7.80;;;5.43;;
37701;SDS011;23548;51.196;6.838;2023-09-12T08:36:38;6.50;;;5.15;;
37701;SDS011;23548;51.196;6.838;2023-09-12T08:39:04;8.15;;;5.72;;
37701;SDS011;23548;51.196;6.838;2023-09-12T08:41:33;10.40;;;5.82;;
37701;SDS011;23548;51.196;6.838;2023-09-12T08:43:59;8.88;;;5.78;;
37701;SDS011;23548;51.196;6.838;2023-09-12T08:46:26;6.30;;;5.68;;
37701;SDS011;23548;51.196;6.838;2023-09-12T08:48:53;9.27;;;6.28;;
37701;SDS011;23548;51.196;6.838;2023-09-12T08:51:22;7.57;;;5.82;;
37701;SDS011;23548;51.196;6.838;2023-09-12T08:53:49;9.38;;;6.28;;
37701;SDS011;23548;51.196;6.838;2023-09-12T08:56:15;10.95;;;6.80;;
37701;SDS011;23548;51.196;6.838;2023-09-12T08:58:43;7.85;;;6.63;;
37701;SDS011;23548;51.196;6.838;2023-09-12T09:01:09;8.35;;;6.10;;
37701;SDS011;23548;51.196;6.838;2023-09-12T09:03:38;6.72;;;5.78;;
37701;SDS011;23548;51.196;6.838;2023-09-12T09:06:06;8.30;;;6.18;;
37701;SDS011;23548;51.196;6.838;2023-09-12T09:08:36;6.90;;;5.70;;
37701;SDS011;23548;51.196;6.838;2023-09-12T09:11:04;7.97;;;5.32;;
37701;SDS011;23548;51.196;6.838;2023-09-12T09:13:34;8.45;;;5.47;;
37701;SDS011;23548;51.196;6.838;2023-09-12T09:16:21;7.57;;;5.07;;
37701;SDS011;23548;51.196;6.838;2023-09-12T09:19:04;7.80;;;4.57;;
37701;SDS011;23548;51.196;6.838;2023-09-12T09:21:34;5.57;;;4.03;;
37701;SDS011;23548;51.196;6.838;2023-09-12T09:24:06;8.32;;;4.93;;
37701;SDS011;23548;51.196;6.838;2023-09-12T09:26:46;6.97;;;4.75;;
37701;SDS011;23548;51.196;6.838;2023-09-12T09:29:17;5.97;;;4.10;;
37701;SDS011;23548;51.196;6.838;2023-09-12T09:31:46;8.52;;;4.47;;
37701;SDS011;23548;51.196;6.838;2023-09-12T09:34:13;4.82;;;4.20;;
37701;SDS011;23548;51.196;6.838;2023-09-12T09:36:43;7.63;;;4.22;;
37701;SDS011;23548;51.196;6.838;2023-09-12T09:39:12;5.35;;;3.30;;
37701;SDS011;23548;51.196;6.838;2023-09-12T09:41:38;7.60;;;4.07;;
37701;SDS011;23548;51.196;6.838;2023-09-12T09:44:07;9.82;;;3.63;;
37701;SDS011;23548;51.196;6.838;2023-09-12T09:46:34;5.88;;;2.85;;
37701;SDS011;23548;51.196;6.838;2023-09-12T09:49:02;5.30;;;3.00;;
37701;SDS011;23548;51.196;6.838;2023-09-12T09:51:29;4.53;;;2.83;;
37701;SDS011;23548;51.196;6.838;2023-09-12T09:53:56;3.70;;;3.00;;
37701;SDS011;23548;51.196;6.838;2023-09-12T09:56:23;4.78;;;3.08;;
37701;SDS011;23548;51.196;6.838;2023-09-12T09:58:56;4.75;;;2.80;;
37701;SDS011;23548;51.196;6.838;2023-09-12T10:01:23;5.70;;;2.50;;
37701;SDS011;23548;51.196;6.838;2023-09-12T10:03:53;5.00;;;2.90;;
37701;SDS011;23548;51.196;6.838;2023-09-12T10:06:24;3.10;;;2.80;;
37701;SDS011;23548;51.196;6.838;2023-09-12T10:08:52;3.72;;;2.42;;
37701;SDS011;23548;51.196;6.838;2023-09-12T10:11:19;5.32;;;3.00;;
37701;SDS011;23548;51.196;6.838;2023-09-12T10:13:54;5.22;;;2.92;;
37701;SDS011;23548;51.196;6.838;2023-09-12T10:16:23;3.45;;;2.53;;
37701;SDS011;23548;51.196;6.838;2023-09-12T10:18:58;4.25;;;2.60;;
37701;SDS011;23548;51.196;6.838;2023-09-12T10:21:31;5.43;;;2.80;;
37701;SDS011;23548;51.196;6.838;2023-09-12T10:23:59;4.45;;;2.72;;
37701;SDS011;23548;51.196;6.838;2023-09-12T10:26:27;4.28;;;2.47;;
37701;SDS011;23548;51.196;6.838;2023-09-12T10:28:55;4.15;;;2.40;;
37701;SDS011;23548;51.196;6.838;2023-09-12T10:31:22;3.55;;;2.10;;
37701;SDS011;23548;51.196;6.838;2023-09-12T10:33:50;3.33;;;2.05;;
37701;SDS011;23548;51.196;6.838;2023-09-12T10:36:17;4.05;;;2.35;;
37701;SDS011;23548;51.196;6.838;2023-09-12T10:38:45;4.80;;;2.55;;
37701;SDS011;23548;51.196;6.838;2023-09-12T10:41:16;3.22;;;2.35;;
37701;SDS011;23548;51.196;6.838;2023-09-12T10:43:44;3.60;;;2.45;;
37701;SDS011;23548;51.196;6.838;2023-09-12T10:46:20;4.78;;;2.00;;
37701;SDS011;23548;51.196;6.838;2023-09-12T10:48:46;3.58;;;2.25;;
37701;SDS011;23548;51.196;6.838;2023-09-12T10:51:12;2.78;;;2.10;;
37701;SDS011;23548;51.196;6.838;2023-09-12T10:53:44;1.98;;;1.77;;
37701;SDS011;23548;51.196;6.838;2023-09-12T10:56:14;2.50;;;2.08;;
37701;SDS011;23548;51.196;6.838;2023-09-12T11:01:44;2.45;;;2.03;;
37701;SDS011;23548;51.196;6.838;2023-09-12T11:06:45;3.90;;;2.17;;
37701;SDS011;23548;51.196;6.838;2023-09-12T11:09:22;3.47;;;2.10;;
37701;SDS011;23548;51.196;6.838;2023-09-12T11:11:49;6.38;;;2.75;;
37701;SDS011;23548;51.196;6.838;2023-09-12T11:14:30;2.30;;;2.10;;
37701;SDS011;23548;51.196;6.838;2023-09-12T11:19:39;4.00;;;2.42;;
37701;SDS011;23548;51.196;6.838;2023-09-12T11:24:52;3.42;;;2.55;;
37701;SDS011;23548;51.196;6.838;2023-09-12T11:27:22;4.80;;;2.90;;
37701;SDS011;23548;51.196;6.838;2023-09-12T11:29:50;3.70;;;2.67;;
37701;SDS011;23548;51.196;6.838;2023-09-12T11:32:28;3.38;;;2.65;;
37701;SDS011;23548;51.196;6.838;2023-09-12T11:34:57;5.15;;;3.30;;
37701;SDS011;23548;51.196;6.838;2023-09-12T11:37:29;3.13;;;2.75;;
37701;SDS011;23548;51.196;6.838;2023-09-12T11:39:55;4.22;;;2.90;;
37701;SDS011;23548;51.196;6.838;2023-09-12T11:42:22;5.00;;;3.00;;
37701;SDS011;23548;51.196;6.838;2023-09-12T11:44:50;3.50;;;2.88;;
37701;SDS011;23548;51.196;6.838;2023-09-12T11:47:17;5.10;;;3.60;;
37701;SDS011;23548;51.196;6.838;2023-09-12T11:49:43;4.45;;;3.50;;
37701;SDS011;23548;51.196;6.838;2023-09-12T11:52:10;4.57;;;3.70;;
37701;SDS011;23548;51.196;6.838;2023-09-12T11:54:38;4.70;;;3.75;;
37701;SDS011;23548;51.196;6.838;2023-09-12T11:57:07;5.45;;;3.85;;
37701;SDS011;23548;51.196;6.838;2023-09-12T11:59:36;6.75;;;4.10;;
37701;SDS011;23548;51.196;6.838;2023-09-12T12:02:07;5.38;;;4.25;;
37701;SDS011;23548;51.196;6.838;2023-09-12T12:04:34;7.30;;;4.53;;
37701;SDS011;23548;51.196;6.838;2023-09-12T12:07:01;6.13;;;5.03;;
37701;SDS011;23548;51.196;6.838;2023-09-12T12:09:29;6.30;;;4.70;;
37701;SDS011;23548;51.196;6.838;2023-09-12T12:11:56;6.75;;;5.03;;
37701;SDS011;23548;51.196;6.838;2023-09-12T12:14:28;7.95;;;5.13;;
37701;SDS011;23548;51.196;6.838;2023-09-12T12:17:05;7.65;;;4.93;;
37701;SDS011;23548;51.196;6.838;2023-09-12T12:19:33;7.97;;;4.60;;
37701;SDS011;23548;51.196;6.838;2023-09-12T12:21:59;5.70;;;4.47;;
37701;SDS011;23548;51.196;6.838;2023-09-12T12:24:25;5.88;;;5.28;;
37701;SDS011;23548;51.196;6.838;2023-09-12T12:26:50;5.63;;;4.68;;
37701;SDS011;23548;51.196;6.838;2023-09-12T12:29:18;8.05;;;5.10;;
37701;SDS011;23548;51.196;6.838;2023-09-12T12:31:44;6.35;;;4.63;;
37701;SDS011;23548;51.196;6.838;2023-09-12T12:34:09;6.32;;;5.07;;
37701;SDS011;23548;51.196;6.838;2023-09-12T12:36:40;6.05;;;5.10;;
37701;SDS011;23548;51.196;6.838;2023-09-12T12:39:09;6.80;;;5.35;;
37701;SDS011;23548;51.196;6.838;2023-09-12T12:41:36;5.95;;;5.35;;
37701;SDS011;23548;51.196;6.838;2023-09-12T12:44:02;6.18;;;4.90;;
37701;SDS011;23548;51.196;6.838;2023-09-12T12:46:30;5.10;;;4.60;;
37701;SDS011;23548;51.196;6.838;2023-09-12T12:48:55;6.93;;;5.13;;
37701;SDS011;23548;51.196;6.838;2023-09-12T12:51:22;6.50;;;4.60;;
37701;SDS011;23548;51.196;6.838;2023-09-12T12:53:50;7.40;;;4.55;;
37701;SDS011;23548;51.196;6.838;2023-09-12T12:56:18;5.95;;;4.85;;
37701;SDS011;23548;51.196;6.838;2023-09-12T12:58:52;7.15;;;4.88;;
37701;SDS011;23548;51.196;6.838;2023-09-12T13:01:20;5.82;;;4.78;;
37701;SDS011;23548;51.196;6.838;2023-09-12T13:03:46;6.20;;;4.50;;
37701;SDS011;23548;51.196;6.838;2023-09-12T13:06:14;5.65;;;4.63;;
37701;SDS011;23548;51.196;6.838;2023-09-12T13:08:40;6.97;;;4.28;;
37701;SDS011;23548;51.196;6.838;2023-09-12T13:11:10;5.03;;;4.53;;
37701;SDS011;23548;51.196;6.838;2023-09-12T13:13:38;5.10;;;4.60;;
37701;SDS011;23548;51.196;6.838;2023-09-12T13:16:05;5.10;;;4.65;;
37701;SDS011;23548;51.196;6.838;2023-09-12T13:18:34;7.32;;;4.90;;
37701;SDS011;23548;51.196;6.838;2023-09-12T13:21:01;7.45;;;4.97;;
37701;SDS011;23548;51.196;6.838;2023-09-12T13:23:28;7.25;;;5.00;;
37701;SDS011;23548;51.196;6.838;2023-09-12T13:25:54;5.30;;;4.80;;
37701;SDS011;23548;51.196;6.838;2023-09-12T13:28:21;5.90;;;4.95;;
37701;SDS011;23548;51.196;6.838;2023-09-12T13:30:50;5.35;;;4.85;;
37701;SDS011;23548;51.196;6.838;2023-09-12T13:33:19;5.85;;;5.13;;
37701;SDS011;23548;51.196;6.838;2023-09-12T13:35:46;6.53;;;4.85;;
37701;SDS011;23548;51.196;6.838;2023-09-12T13:38:13;6.63;;;5.38;;
37701;SDS011;23548;51.196;6.838;2023-09-12T13:40:41;5.38;;;4.88;;
37701;SDS011;23548;51.196;6.838;2023-09-12T13:43:08;5.57;;;5.00;;
37701;SDS011;23548;51.196;6.838;2023-09-12T13:45:35;5.97;;;5.35;;
37701;SDS011;23548;51.196;6.838;2023-09-12T13:48:01;7.22;;;6.50;;
37701;SDS011;23548;51.196;6.838;2023-09-12T13:50:28;8.23;;;6.95;;
37701;SDS011;23548;51.196;6.838;2023-09-12T13:52:59;7.82;;;6.32;;
37701;SDS011;23548;51.196;6.838;2023-09-12T13:55:33;7.07;;;6.30;;
37701;SDS011;23548;51.196;6.838;2023-09-12T13:58:01;8.73;;;6.97;;
37701;SDS011;23548;51.196;6.838;2023-09-12T14:00:28;8.40;;;6.22;;
37701;SDS011;23548;51.196;6.838;2023-09-12T14:02:53;6.60;;;5.90;;
37701;SDS011;23548;51.196;6.838;2023-09-12T14:05:19;6.18;;;4.90;;
37701;SDS011;23548;51.196;6.838;2023-09-12T14:07:45;5.60;;;5.07;;
37701;SDS011;23548;51.196;6.838;2023-09-12T14:10:11;5.45;;;4.95;;
37701;SDS011;23548;51.196;6.838;2023-09-12T14:12:38;7.45;;;5.15;;
37701;SDS011;23548;51.196;6.838;2023-09-12T14:15:03;5.85;;;5.35;;
37701;SDS011;23548;51.196;6.838;2023-09-12T14:17:31;6.60;;;5.97;;
37701;SDS011;23548;51.196;6.838;2023-09-12T14:19:57;6.68;;;5.97;;
37701;SDS011;23548;51.196;6.838;2023-09-12T14:22:23;8.38;;;6.80;;
37701;SDS011;23548;51.196;6.838;2023-09-12T14:24:49;6.63;;;6.03;;
37701;SDS011;23548;51.196;6.838;2023-09-12T14:27:15;8.23;;;6.40;;
37701;SDS011;23548;51.196;6.838;2023-09-12T14:29:41;10.20;;;6.43;;
37701;SDS011;23548;51.196;6.838;2023-09-12T14:32:10;9.07;;;6.75;;
37701;SDS011;23548;51.196;6.838;2023-09-12T14:34:37;8.88;;;6.95;;
37701;SDS011;23548;51.196;6.838;2023-09-12T14:37:04;6.70;;;6.10;;
37701;SDS011;23548;51.196;6.838;2023-09-12T14:39:30;8.02;;;5.95;;
37701;SDS011;23548;51.196;6.838;2023-09-12T14:41:56;7.55;;;6.85;;
37701;SDS011;23548;51.196;6.838;2023-09-12T14:44:22;8.02;;;7.22;;
37701;SDS011;23548;51.196;6.838;2023-09-12T14:46:52;7.90;;;6.65;;
37701;SDS011;23548;51.196;6.838;2023-09-12T14:49:18;7.32;;;6.47;;
37701;SDS011;23548;51.196;6.838;2023-09-12T14:51:44;7.10;;;6.43;;
37701;SDS011;23548;51.196;6.838;2023-09-12T14:54:09;9.50;;;7.18;;
37701;SDS011;23548;51.196;6.838;2023-09-12T14:56:35;6.93;;;6.32;;
37701;SDS011;23548;51.196;6.838;2023-09-12T14:59:01;8.05;;;6.65;;